nws-alerts: Checking more than four warning/county codes can delay the loading of your pages. You should use a cron job to get the data.

Nearby METAR Reports

 

KOXC - Oxford/Waterbury, Connecticut, USA
Distance from station: NW 7mi, 11km
Updated: 05/11/2021 3:51pm
Mostly cloudy
Mostly cloudy
 Wind from WNW
Wind: WNW 12 mph , 19 km/h, Gust: 17 mph , 28 km/h
Temperature: 59°F , 15°C
Dew Point: 27°F , -3°C
Humidity: 29%
Barometer: 29.97 inHg , 1014.9 hPa
Clouds: Mostly cloudy
Visibility: 10 miles , 16 km
Cloud details: Mostly cloudy 9500 ft
2021/05/11 19:51 KOXC 111951Z 30010G15KT 270V340 10SM BKN095 15/M03 A2997 RMK AO2 SLP162 T01501028
KHVN - New Haven/Tweed, Connecticut, USA
Distance from station: SE 13mi, 20km
Updated: 05/11/2021 3:53pm
Overcast
Overcast
 Wind from WNW
Wind: WNW 15 mph , 24 km/h, Gust: 26 mph , 43 km/h
Temperature: 64°F , 18°C
Dew Point: 30°F , -1°C
Humidity: 28%
Barometer: 29.96 inHg , 1014.6 hPa
Clouds: Overcast
Visibility: 10 miles , 16 km
Cloud details: Overcast 10000 ft
2021/05/11 19:53 KHVN 111953Z 30013G23KT 10SM OVC100 18/M01 A2996 RMK AO2 SLP144 T01781006
 
KMMK - Meriden, Connecticut, USA
Distance from station: NE 13mi, 21km
Updated: 05/11/2021 4:39pm
unable to load KMMK data RC=
unable to load KMMK data RC=
 
KBDR - Bridgeport, Connecticut, USA
Distance from station: SSW 17mi, 27km
Updated: 05/11/2021 4:39pm
unable to load KBDR data RC=
unable to load KBDR data RC=
 
 
KDXR - Danbury, Connecticut, USA
Distance from station: W 23mi, 38km
Updated: 05/11/2021 3:53pm
Overcast
Overcast
 Wind from NW
Wind: NW 8 mph , 13 km/h, Gust: 29 mph , 46 km/h
Temperature: 61°F , 16°C
Dew Point: 27°F , -3°C
Humidity: 27%
Barometer: 29.99 inHg , 1015.6 hPa
Clouds: Overcast
Visibility: 10 miles , 16 km
Cloud details: Mostly cloudy 7000 ft
Overcast 8500 ft
2021/05/11 19:53 KDXR 111953Z 32007G25KT 10SM BKN070 OVC085 16/M03 A2999 RMK AO2 PK WND 27026/1943 SLP154 T01611028